createdAt,value
2022-07-29T00:00:39.336Z,95199.50
2022-07-29T00:01:39.319Z,95197.09
2022-07-29T00:02:39.335Z,95190.19
2022-07-29T00:03:39.361Z,95195.38
2022-07-29T00:04:39.344Z,95193.65
2022-07-29T00:05:39.278Z,95190.02
2022-07-29T00:06:39.302Z,95190.69
2022-07-29T00:07:39.259Z,95189.64
2022-07-29T00:08:39.262Z,95184.62
2022-07-29T00:09:51.097Z,95185.30
2022-07-29T00:10:39.229Z,95180.62
2022-07-29T00:11:39.240Z,95189.44
2022-07-29T00:12:39.244Z,95184.69
2022-07-29T00:13:39.213Z,95186.67
2022-07-29T00:14:39.206Z,95183.65
2022-07-29T00:15:39.192Z,95183.81
2022-07-29T00:16:39.246Z,95182.70
2022-07-29T00:17:39.187Z,95180.89
2022-07-29T00:18:39.173Z,95180.52
2022-07-29T00:19:39.153Z,95180.02
2022-07-29T00:20:39.143Z,95172.58
2022-07-29T00:21:39.154Z,95174.09
2022-07-29T00:22:39.125Z,95176.41
2022-07-29T00:23:39.129Z,95174.25
2022-07-29T00:24:39.125Z,95179.52
2022-07-29T00:25:39.119Z,95178.29
2022-07-29T00:26:39.103Z,95174.05
2022-07-29T00:27:39.100Z,95176.09
2022-07-29T00:28:39.089Z,95169.84
2022-07-29T00:29:39.081Z,95171.06
2022-07-29T00:30:39.071Z,95171.95
2022-07-29T00:31:39.089Z,95166.83
2022-07-29T00:32:39.039Z,95174.65
2022-07-29T00:33:39.029Z,95179.77
2022-07-29T00:34:39.039Z,95174.62
2022-07-29T00:35:39.033Z,95173.53
2022-07-29T00:36:39.034Z,95174.05
2022-07-29T00:37:39.017Z,95171.80
2022-07-29T00:38:39.001Z,95173.48
2022-07-29T00:39:38.996Z,95170.20
2022-07-29T00:40:38.983Z,95170.83
2022-07-29T00:41:38.962Z,95172.27
2022-07-29T00:42:38.980Z,95165.98
2022-07-29T00:43:38.943Z,95168.14
2022-07-29T00:44:38.972Z,95166.39
2022-07-29T00:45:38.946Z,95164.23
2022-07-29T00:46:38.963Z,95163.64
2022-07-29T00:47:38.930Z,95166.94
2022-07-29T00:48:38.959Z,95169.84
2022-07-29T00:49:38.899Z,95168.98
2022-07-29T00:50:38.901Z,95166.56
2022-07-29T00:51:38.877Z,95163.96
2022-07-29T00:52:38.869Z,95167.75
2022-07-29T00:53:38.871Z,95164.82
2022-07-29T00:54:44.082Z,95163.27
2022-07-29T00:55:38.853Z,95162.39
2022-07-29T00:56:38.829Z,95156.20
2022-07-29T00:57:38.822Z,95157.47
2022-07-29T00:58:38.810Z,95155.48
2022-07-29T00:59:38.824Z,95160.84
2022-07-29T01:00:38.850Z,95158.27
2022-07-29T01:01:38.857Z,95153.77
2022-07-29T01:02:38.834Z,95154.23
2022-07-29T01:03:38.772Z,95156.10
2022-07-29T01:04:38.763Z,95156.80
2022-07-29T01:05:49.801Z,95154.05
2022-07-29T01:06:38.777Z,95153.11
2022-07-29T01:07:38.743Z,95152.30
2022-07-29T01:08:38.738Z,95146.88
2022-07-29T01:09:46.342Z,95148.00
2022-07-29T01:10:38.719Z,95150.44
2022-07-29T01:11:38.706Z,95146.90
2022-07-29T01:12:38.727Z,95146.19
2022-07-29T01:13:38.700Z,95148.42
2022-07-29T01:14:38.680Z,95153.05
2022-07-29T01:15:38.668Z,95148.06
2022-07-29T01:16:38.700Z,95147.50
2022-07-29T01:17:38.650Z,95143.12
2022-07-29T01:18:38.668Z,95143.12
2022-07-29T01:19:38.629Z,95138.11
2022-07-29T01:20:38.619Z,95140.27
2022-07-29T01:21:38.635Z,95144.25
2022-07-29T01:22:38.599Z,95141.76
2022-07-29T01:23:38.614Z,95139.10
2022-07-29T01:24:38.614Z,95142.55
2022-07-29T01:25:38.580Z,95139.80
2022-07-29T01:26:38.583Z,95137.55
2022-07-29T01:27:38.562Z,95142.72
2022-07-29T01:28:38.566Z,95135.98
2022-07-29T01:29:38.759Z,95136.51
2022-07-29T01:30:38.567Z,95130.45
2022-07-29T01:31:45.369Z,95130.78
2022-07-29T01:32:38.527Z,95128.71
2022-07-29T01:33:38.528Z,95126.98
2022-07-29T01:34:38.495Z,95128.00
2022-07-29T01:35:38.509Z,95127.48
2022-07-29T01:36:38.509Z,95122.05
2022-07-29T01:37:38.488Z,95115.47
2022-07-29T01:38:38.466Z,95119.67
2022-07-29T01:39:38.472Z,95118.77
2022-07-29T01:40:38.461Z,95121.18
2022-07-29T01:41:38.456Z,95119.11
2022-07-29T01:42:38.463Z,95118.58
2022-07-29T01:43:38.426Z,95115.95
2022-07-29T01:44:38.423Z,95115.67
2022-07-29T01:45:38.420Z,95116.88
2022-07-29T01:46:38.432Z,95114.87
2022-07-29T01:47:38.404Z,95111.82
2022-07-29T01:48:38.461Z,95117.53
2022-07-29T01:49:38.373Z,95109.56
2022-07-29T01:50:38.364Z,95110.84
2022-07-29T01:51:38.353Z,95110.67
2022-07-29T01:52:38.362Z,95115.22
2022-07-29T01:53:38.455Z,95118.15
2022-07-29T01:54:38.333Z,95116.35
2022-07-29T01:55:38.323Z,95113.38
2022-07-29T01:56:38.304Z,95114.39
2022-07-29T01:57:38.317Z,95112.30
2022-07-29T01:58:38.308Z,95106.89
2022-07-29T01:59:38.298Z,95106.80
2022-07-29T02:00:38.301Z,95110.15
2022-07-29T02:01:38.306Z,95108.58
2022-07-29T02:02:38.267Z,95106.05
2022-07-29T02:03:38.247Z,95104.42
2022-07-29T02:04:38.297Z,95106.56
2022-07-29T02:05:38.240Z,95111.11
2022-07-29T02:06:38.242Z,95106.61
2022-07-29T02:07:38.229Z,95104.87
2022-07-29T02:08:38.199Z,95106.91
2022-07-29T02:09:38.213Z,95107.42
2022-07-29T02:10:38.196Z,95107.57
2022-07-29T02:11:38.195Z,95105.84
2022-07-29T02:12:38.171Z,95109.86
2022-07-29T02:13:38.176Z,95113.82
2022-07-29T02:14:38.157Z,95116.28
2022-07-29T02:15:38.260Z,95117.02
2022-07-29T02:16:38.207Z,95115.89
2022-07-29T02:17:40.809Z,95119.45
2022-07-29T02:18:38.134Z,95122.94
2022-07-29T02:19:38.111Z,95119.45
2022-07-29T02:20:38.108Z,95127.80
2022-07-29T02:21:38.106Z,95119.47
2022-07-29T02:22:38.076Z,95125.72
2022-07-29T02:23:44.994Z,95125.27
2022-07-29T02:24:38.099Z,95127.95
2022-07-29T02:25:38.496Z,95122.40
2022-07-29T02:26:38.046Z,95124.27
2022-07-29T02:27:38.051Z,95127.52
2022-07-29T02:28:38.027Z,95120.30
2022-07-29T02:29:38.037Z,95123.46
2022-07-29T02:30:38.028Z,95123.88
2022-07-29T02:31:38.083Z,95122.40
2022-07-29T02:32:37.989Z,95127.36
2022-07-29T02:33:37.989Z,95122.38
2022-07-29T02:34:37.974Z,95124.14
2022-07-29T02:35:37.984Z,95124.20
2022-07-29T02:36:37.974Z,95123.62
2022-07-29T02:37:37.950Z,95123.65
2022-07-29T02:38:37.955Z,95126.41
2022-07-29T02:39:37.945Z,95120.16
2022-07-29T02:40:37.922Z,95123.52
2022-07-29T02:41:37.914Z,95124.92
2022-07-29T02:42:37.936Z,95124.56
2022-07-29T02:43:37.903Z,95120.36
2022-07-29T02:44:37.884Z,95122.79
2022-07-29T02:45:37.899Z,95125.23
2022-07-29T02:46:37.936Z,95125.05
2022-07-29T02:47:42.039Z,95129.06
2022-07-29T02:48:37.905Z,95131.17
2022-07-29T02:49:37.863Z,95134.76
2022-07-29T02:50:37.848Z,95134.66
2022-07-29T02:51:43.625Z,95136.18
2022-07-29T02:52:37.831Z,95136.34
2022-07-29T02:53:37.821Z,95135.83
2022-07-29T02:54:37.817Z,95134.27
2022-07-29T02:55:37.788Z,95129.25
2022-07-29T02:56:37.782Z,95127.14
2022-07-29T02:57:54.380Z,95128.78
2022-07-29T02:58:37.759Z,95130.43
2022-07-29T02:59:37.775Z,95125.20
2022-07-29T03:00:37.770Z,95123.45
2022-07-29T03:01:37.833Z,95125.17
2022-07-29T03:02:37.721Z,95127.12
2022-07-29T03:03:37.712Z,95126.82
2022-07-29T03:04:37.748Z,95122.39
2022-07-29T03:05:37.692Z,95127.75
2022-07-29T03:06:38.376Z,95124.11
2022-07-29T03:07:37.673Z,95129.25
2022-07-29T03:08:37.663Z,95128.34
2022-07-29T03:09:37.675Z,95127.98
2022-07-29T03:10:37.658Z,95128.77
2022-07-29T03:11:42.452Z,95130.41
2022-07-29T03:12:37.659Z,95127.12
2022-07-29T03:13:37.626Z,95131.78
2022-07-29T03:14:37.619Z,95126.97
2022-07-29T03:15:37.668Z,95123.46
2022-07-29T03:16:41.078Z,95124.56
2022-07-29T03:17:37.602Z,95128.03
2022-07-29T03:18:37.597Z,95128.17
2022-07-29T03:19:37.567Z,95125.77
2022-07-29T03:20:37.558Z,95127.36
2022-07-29T03:21:37.561Z,95125.03
2022-07-29T03:22:37.552Z,95126.30
2022-07-29T03:23:37.528Z,95126.38
2022-07-29T03:24:37.559Z,95127.34
2022-07-29T03:25:37.523Z,95122.34
2022-07-29T03:26:37.505Z,95124.97
2022-07-29T03:27:37.514Z,95129.72
2022-07-29T03:28:37.480Z,95126.33
2022-07-29T03:29:37.493Z,95122.23
2022-07-29T03:30:37.481Z,95121.34
2022-07-29T03:31:37.556Z,95123.22
2022-07-29T03:32:37.456Z,95120.81
2022-07-29T03:33:37.462Z,95124.25
2022-07-29T03:34:37.444Z,95123.39
2022-07-29T03:35:37.425Z,95123.90
2022-07-29T03:36:37.447Z,95127.61
2022-07-29T03:37:37.419Z,95127.95
2022-07-29T03:38:37.412Z,95132.42
2022-07-29T03:39:37.386Z,95136.65
2022-07-29T03:40:37.390Z,95135.62
2022-07-29T03:41:37.379Z,95133.23
2022-07-29T03:42:37.416Z,95135.45
2022-07-29T03:43:37.368Z,95128.91
2022-07-29T03:44:37.351Z,95128.47
2022-07-29T03:45:37.352Z,95128.23
2022-07-29T03:46:37.382Z,95125.55
2022-07-29T03:47:49.918Z,95128.64
2022-07-29T03:48:37.375Z,95131.16
2022-07-29T03:49:37.302Z,95132.62
2022-07-29T03:50:37.305Z,95131.05
2022-07-29T03:51:37.281Z,95130.20
2022-07-29T03:52:37.287Z,95130.62
2022-07-29T03:53:37.275Z,95132.24
2022-07-29T03:54:37.282Z,95134.14
2022-07-29T03:55:37.256Z,95137.81
2022-07-29T03:56:37.236Z,95130.65
2022-07-29T03:57:37.247Z,95132.45
2022-07-29T03:58:37.214Z,95134.01
2022-07-29T03:59:37.227Z,95138.90
2022-07-29T04:00:37.228Z,95140.20
2022-07-29T04:01:37.233Z,95139.44
2022-07-29T04:02:37.186Z,95141.41
2022-07-29T04:03:37.223Z,95140.03
2022-07-29T04:04:37.212Z,95135.48
2022-07-29T04:05:37.211Z,95134.33
2022-07-29T04:06:37.165Z,95139.48
2022-07-29T04:07:37.146Z,95137.08
2022-07-29T04:08:37.141Z,95142.58
2022-07-29T04:09:37.140Z,95142.16
2022-07-29T04:10:37.122Z,95143.88
2022-07-29T04:12:01.556Z,95146.12
2022-07-29T04:12:37.112Z,95147.05
2022-07-29T04:13:37.091Z,95145.72
2022-07-29T04:14:37.077Z,95149.02
2022-07-29T04:15:37.156Z,95146.41
2022-07-29T04:16:37.060Z,95147.00
2022-07-29T04:17:37.064Z,95148.55
2022-07-29T04:18:37.123Z,95146.90
2022-07-29T04:19:37.054Z,95147.14
2022-07-29T04:20:37.026Z,95145.77
2022-07-29T04:21:37.022Z,95146.97
2022-07-29T04:22:37.004Z,95146.31
2022-07-29T04:23:52.765Z,95154.39
2022-07-29T04:24:37.021Z,95153.29
2022-07-29T04:25:36.999Z,95155.74
2022-07-29T04:26:36.988Z,95153.31
2022-07-29T04:27:36.979Z,95160.46
2022-07-29T04:28:36.979Z,95160.28
2022-07-29T04:29:36.960Z,95161.59
2022-07-29T04:30:36.967Z,95162.25
2022-07-29T04:31:37.001Z,95162.18
2022-07-29T04:32:36.941Z,95163.62
2022-07-29T04:33:36.909Z,95163.62
2022-07-29T04:34:36.909Z,95161.48
2022-07-29T04:35:38.530Z,95163.68
2022-07-29T04:36:36.920Z,95158.32
2022-07-29T04:37:36.891Z,95160.02
2022-07-29T04:38:36.891Z,95161.39
2022-07-29T04:39:36.873Z,95155.28
2022-07-29T04:40:38.613Z,95158.03
2022-07-29T04:41:36.842Z,95161.02
2022-07-29T04:42:41.998Z,95162.94
2022-07-29T04:43:37.048Z,95164.71
2022-07-29T04:44:37.223Z,95158.99
2022-07-29T04:45:36.803Z,95160.98
2022-07-29T04:46:36.945Z,95161.94
2022-07-29T04:47:36.794Z,95162.95
2022-07-29T04:48:36.819Z,95161.95
2022-07-29T04:49:36.775Z,95162.52
2022-07-29T04:50:36.766Z,95166.77
2022-07-29T04:51:36.755Z,95165.69
2022-07-29T04:52:36.777Z,95163.91
2022-07-29T04:53:36.736Z,95162.72
2022-07-29T04:54:36.771Z,95162.52
2022-07-29T04:55:36.732Z,95172.52
2022-07-29T04:56:36.718Z,95168.86
2022-07-29T04:57:36.700Z,95168.82
2022-07-29T04:58:36.701Z,95175.45
2022-07-29T04:59:36.688Z,95172.92
2022-07-29T05:00:36.705Z,95175.11
2022-07-29T05:01:36.738Z,95174.77
2022-07-29T05:02:36.741Z,95178.55
2022-07-29T05:03:36.651Z,95173.32
2022-07-29T05:04:36.641Z,95181.59
2022-07-29T05:05:36.631Z,95172.67
2022-07-29T05:06:36.632Z,95166.48
2022-07-29T05:07:36.613Z,95165.72
2022-07-29T05:08:36.641Z,95158.64
2022-07-29T05:09:36.602Z,95150.17
2022-07-29T05:10:36.607Z,95157.12
2022-07-29T05:11:36.586Z,95145.67
2022-07-29T05:12:36.597Z,95148.97
2022-07-29T05:13:45.455Z,95151.05
2022-07-29T05:14:36.569Z,95145.72
2022-07-29T05:15:36.584Z,95140.29
2022-07-29T05:16:36.556Z,95147.48
2022-07-29T05:17:36.527Z,95143.04
2022-07-29T05:18:36.540Z,95147.05
2022-07-29T05:19:39.284Z,95146.95
2022-07-29T05:20:36.520Z,95148.12
2022-07-29T05:21:36.502Z,95149.62
2022-07-29T05:22:36.502Z,95151.79
2022-07-29T05:23:36.488Z,95146.58
2022-07-29T05:24:36.504Z,95145.03
2022-07-29T05:25:43.719Z,95140.88
2022-07-29T05:26:36.471Z,95138.05
2022-07-29T05:27:36.439Z,95137.36
2022-07-29T05:28:36.434Z,95133.77
2022-07-29T05:29:43.983Z,95136.84
2022-07-29T05:30:36.477Z,95141.23
2022-07-29T05:31:36.437Z,95141.20
2022-07-29T05:32:36.428Z,95141.55
2022-07-29T05:33:37.189Z,95143.37
2022-07-29T05:34:36.396Z,95143.39
2022-07-29T05:35:36.377Z,95145.31
2022-07-29T05:36:36.473Z,95143.73
2022-07-29T05:37:36.353Z,95134.88
2022-07-29T05:38:36.383Z,95139.81
2022-07-29T05:39:47.483Z,95143.32
2022-07-29T05:40:36.358Z,95145.50
2022-07-29T05:41:36.316Z,95145.23
2022-07-29T05:42:36.430Z,95149.16
2022-07-29T05:43:36.310Z,95149.03
2022-07-29T05:44:36.296Z,95142.99
2022-07-29T05:45:49.947Z,95144.39
2022-07-29T05:46:36.362Z,95146.69
2022-07-29T05:47:36.273Z,95141.87
2022-07-29T05:48:36.415Z,95136.63
2022-07-29T05:49:36.295Z,95142.16
2022-07-29T05:50:36.254Z,95141.50
2022-07-29T05:51:36.230Z,95140.78
2022-07-29T05:52:36.221Z,95146.48
2022-07-29T05:53:36.224Z,95147.27
2022-07-29T05:54:36.211Z,95146.07
2022-07-29T05:55:36.194Z,95148.60
2022-07-29T05:56:36.192Z,95141.09
2022-07-29T05:57:36.172Z,95144.42
2022-07-29T05:58:36.176Z,95146.45
2022-07-29T05:59:36.163Z,95149.12
2022-07-29T06:00:36.177Z,95151.70
2022-07-29T06:01:36.202Z,95149.02
2022-07-29T06:02:36.148Z,95148.22
2022-07-29T06:03:36.126Z,95153.62
2022-07-29T06:04:36.176Z,95150.89
2022-07-29T06:05:36.113Z,95161.17
2022-07-29T06:06:36.106Z,95158.64
2022-07-29T06:07:36.099Z,95157.93
2022-07-29T06:08:36.087Z,95159.82
2022-07-29T06:09:36.498Z,95161.18
2022-07-29T06:10:36.081Z,95157.56
2022-07-29T06:11:36.059Z,95162.67
2022-07-29T06:12:36.069Z,95163.34
2022-07-29T06:13:36.039Z,95168.38
2022-07-29T06:14:36.029Z,95167.16
2022-07-29T06:15:36.083Z,95169.31
2022-07-29T06:16:36.095Z,95170.69
2022-07-29T06:17:36.014Z,95171.02
2022-07-29T06:18:36.036Z,95165.66
2022-07-29T06:19:35.996Z,95170.33
2022-07-29T06:20:35.982Z,95168.45
2022-07-29T06:21:35.990Z,95164.33
2022-07-29T06:22:35.976Z,95165.08
2022-07-29T06:23:35.967Z,95167.94
2022-07-29T06:24:35.955Z,95171.09
2022-07-29T06:25:35.947Z,95173.72
2022-07-29T06:26:39.672Z,95170.05
2022-07-29T06:27:35.929Z,95173.64
2022-07-29T06:28:35.914Z,95170.86
2022-07-29T06:29:35.909Z,95173.81
2022-07-29T06:30:35.930Z,95172.48
2022-07-29T06:31:35.889Z,95171.11
2022-07-29T06:32:38.961Z,95176.44
2022-07-29T06:33:35.879Z,95166.56
2022-07-29T06:34:35.859Z,95167.81
2022-07-29T06:35:38.765Z,95171.72
2022-07-29T06:36:35.859Z,95169.36
2022-07-29T06:37:35.844Z,95181.33
2022-07-29T06:38:37.440Z,95184.64
2022-07-29T06:39:35.810Z,95180.56
2022-07-29T06:40:35.810Z,95182.38
2022-07-29T06:41:35.791Z,95186.34
2022-07-29T06:42:35.822Z,95188.35
2022-07-29T06:43:35.787Z,95186.44
2022-07-29T06:44:35.771Z,95184.61
2022-07-29T06:45:35.767Z,95186.04
2022-07-29T06:46:35.868Z,95191.38
2022-07-29T06:47:35.756Z,95190.54
2022-07-29T06:48:35.777Z,95187.05
2022-07-29T06:49:35.723Z,95194.30
2022-07-29T06:50:35.733Z,95189.84
2022-07-29T06:51:35.716Z,95189.70
2022-07-29T06:52:35.694Z,95194.27
2022-07-29T06:53:35.684Z,95191.78
2022-07-29T06:54:35.786Z,95199.80
2022-07-29T06:55:35.666Z,95198.81
2022-07-29T06:56:38.437Z,95196.75
2022-07-29T06:57:35.660Z,95201.98
2022-07-29T06:58:35.647Z,95202.53
2022-07-29T06:59:36.167Z,95199.30
2022-07-29T07:00:35.663Z,95203.53
2022-07-29T07:01:35.844Z,95204.49
2022-07-29T07:02:35.649Z,95209.38
2022-07-29T07:03:35.611Z,95210.09
2022-07-29T07:04:35.603Z,95208.05
2022-07-29T07:05:35.597Z,95208.07
2022-07-29T07:06:35.603Z,95211.12
2022-07-29T07:07:35.573Z,95211.61
2022-07-29T07:08:35.574Z,95215.36
2022-07-29T07:09:40.387Z,95216.75
2022-07-29T07:10:35.541Z,95217.73
2022-07-29T07:11:35.547Z,95217.33
2022-07-29T07:12:35.542Z,95216.64
2022-07-29T07:13:36.681Z,95217.20
2022-07-29T07:14:35.507Z,95219.22
2022-07-29T07:15:39.792Z,95222.00
2022-07-29T07:16:35.550Z,95224.31
2022-07-29T07:17:35.488Z,95230.34
2022-07-29T07:18:35.484Z,95235.72
2022-07-29T07:19:35.456Z,95234.09
2022-07-29T07:20:35.471Z,95238.87
2022-07-29T07:21:35.459Z,95238.37
2022-07-29T07:22:38.789Z,95237.03
2022-07-29T07:23:35.417Z,95238.12
2022-07-29T07:24:35.438Z,95240.03
2022-07-29T07:25:35.420Z,95239.73
2022-07-29T07:26:35.411Z,95243.83
2022-07-29T07:27:35.401Z,95250.23
2022-07-29T07:28:35.403Z,95250.42
2022-07-29T07:29:35.383Z,95246.23
2022-07-29T07:30:35.369Z,95253.61
2022-07-29T07:31:35.415Z,95251.38
2022-07-29T07:32:35.350Z,95246.39
2022-07-29T07:33:35.331Z,95256.26
2022-07-29T07:34:35.345Z,95258.69
2022-07-29T07:35:35.325Z,95255.17
2022-07-29T07:36:35.332Z,95251.16
2022-07-29T07:37:35.302Z,95258.14
2022-07-29T07:38:35.316Z,95262.41
2022-07-29T07:39:35.296Z,95264.09
2022-07-29T07:40:35.279Z,95265.08
2022-07-29T07:41:35.263Z,95270.26
2022-07-29T07:42:35.285Z,95269.07
2022-07-29T07:43:35.258Z,95275.30
2022-07-29T07:44:51.288Z,95278.14
2022-07-29T07:45:35.288Z,95279.95
2022-07-29T07:46:35.239Z,95280.09
2022-07-29T07:47:35.227Z,95285.97
2022-07-29T07:48:35.240Z,95283.11
2022-07-29T07:49:35.197Z,95282.77
2022-07-29T07:50:35.197Z,95284.74
2022-07-29T07:51:35.194Z,95277.20
2022-07-29T07:52:35.202Z,95275.44
2022-07-29T07:53:35.172Z,95271.68
2022-07-29T07:54:35.189Z,95268.70
2022-07-29T07:56:00.340Z,95270.19
2022-07-29T07:56:35.524Z,95268.29
2022-07-29T07:57:35.134Z,95267.84
2022-07-29T07:58:35.134Z,95268.12
2022-07-29T07:59:35.110Z,95263.56
2022-07-29T08:00:35.113Z,95262.50
2022-07-29T08:01:55.245Z,95262.10
2022-07-29T08:02:35.150Z,95259.74
2022-07-29T08:03:35.089Z,95259.73
2022-07-29T08:04:35.063Z,95261.20
2022-07-29T08:05:35.054Z,95266.22
2022-07-29T08:06:35.086Z,95269.52
2022-07-29T08:07:35.048Z,95267.50
2022-07-29T08:08:35.047Z,95265.93
2022-07-29T08:09:35.024Z,95269.19
2022-07-29T08:10:35.016Z,95265.02
2022-07-29T08:11:35.241Z,95264.58
2022-07-29T08:12:35.020Z,95273.11
2022-07-29T08:13:34.986Z,95276.07
2022-07-29T08:14:34.978Z,95269.79
2022-07-29T08:15:34.967Z,95276.36
2022-07-29T08:16:35.060Z,95275.41
2022-07-29T08:17:35.387Z,95273.80
2022-07-29T08:18:34.979Z,95272.77
2022-07-29T08:19:34.929Z,95275.54
2022-07-29T08:20:34.930Z,95276.98
2022-07-29T08:21:34.925Z,95276.97
2022-07-29T08:22:34.925Z,95272.36
2022-07-29T08:23:46.180Z,95271.48
2022-07-29T08:24:34.902Z,95275.66
2022-07-29T08:25:34.902Z,95273.53
2022-07-29T08:26:34.886Z,95280.88
2022-07-29T08:27:43.477Z,95279.06
2022-07-29T08:28:34.869Z,95279.92
2022-07-29T08:29:34.844Z,95279.17
2022-07-29T08:30:34.853Z,95278.11
2022-07-29T08:31:34.960Z,95280.83
2022-07-29T08:32:53.055Z,95283.38
2022-07-29T08:33:34.814Z,95286.27
2022-07-29T08:34:34.819Z,95287.53
2022-07-29T08:35:35.678Z,95291.89
2022-07-29T08:36:34.807Z,95285.69
2022-07-29T08:37:34.776Z,95288.36
2022-07-29T08:38:34.768Z,95291.16
2022-07-29T08:39:34.771Z,95292.32
2022-07-29T08:40:34.749Z,95294.73
2022-07-29T08:41:34.760Z,95292.49
2022-07-29T08:42:34.739Z,95290.27
2022-07-29T08:43:34.742Z,95297.36
2022-07-29T08:44:34.724Z,95298.31
2022-07-29T08:45:34.799Z,95300.14
2022-07-29T08:46:34.712Z,95298.93
2022-07-29T08:47:34.705Z,95300.31
2022-07-29T08:48:34.694Z,95304.05
2022-07-29T08:49:34.672Z,95300.92
2022-07-29T08:50:34.676Z,95300.16
2022-07-29T08:51:34.667Z,95299.12
2022-07-29T08:52:34.657Z,95300.50
2022-07-29T08:53:34.648Z,95297.11
2022-07-29T08:54:34.766Z,95297.68
2022-07-29T08:55:34.627Z,95304.86
2022-07-29T08:56:34.621Z,95304.12
2022-07-29T08:57:34.626Z,95303.36
2022-07-29T08:58:36.791Z,95301.19
2022-07-29T08:59:34.600Z,95303.92
2022-07-29T09:00:34.587Z,95303.20
2022-07-29T09:01:35.533Z,95299.80
2022-07-29T09:02:34.572Z,95305.83
2022-07-29T09:05:00.495Z,95303.56
2022-07-29T09:06:00.537Z,95292.80
2022-07-29T09:07:00.491Z,95293.48
2022-07-29T09:08:00.473Z,95295.45
2022-07-29T09:09:00.453Z,95292.42
2022-07-29T09:10:00.454Z,95291.34
2022-07-29T09:11:00.444Z,95295.77
2022-07-29T09:12:00.445Z,95296.09
2022-07-29T09:13:00.415Z,95299.05
2022-07-29T09:14:00.433Z,95292.50
2022-07-29T09:15:00.419Z,95291.62
2022-07-29T09:16:02.515Z,95290.59
2022-07-29T09:17:00.684Z,95286.94
2022-07-29T09:18:00.397Z,95293.31
2022-07-29T09:19:00.382Z,95294.45
2022-07-29T09:20:00.368Z,95290.98
2022-07-29T09:21:00.359Z,95293.73
2022-07-29T09:22:00.527Z,95290.80
2022-07-29T09:23:00.336Z,95288.32
2022-07-29T09:24:00.360Z,95285.95
2022-07-29T09:25:00.321Z,95291.62
2022-07-29T09:26:00.320Z,95285.64
2022-07-29T09:27:00.301Z,95291.14
2022-07-29T09:28:00.301Z,95291.31
2022-07-29T09:29:00.281Z,95285.80
2022-07-29T09:30:00.333Z,95289.05
2022-07-29T09:31:00.286Z,95287.33
2022-07-29T09:32:00.328Z,95290.08
2022-07-29T09:33:00.295Z,95292.52
2022-07-29T09:34:00.254Z,95289.14
2022-07-29T09:35:00.247Z,95295.42
2022-07-29T09:36:00.266Z,95294.20
2022-07-29T09:37:00.215Z,95288.86
2022-07-29T09:38:00.227Z,95287.06
2022-07-29T09:39:00.210Z,95288.53
2022-07-29T09:40:00.207Z,95283.88
2022-07-29T09:41:01.735Z,95282.84
2022-07-29T09:42:00.199Z,95284.94
2022-07-29T09:43:00.166Z,95288.23
2022-07-29T09:44:00.158Z,95290.34
2022-07-29T09:45:00.152Z,95284.95
2022-07-29T09:46:00.152Z,95285.23
2022-07-29T09:47:00.252Z,95286.30
2022-07-29T09:48:00.139Z,95287.08
2022-07-29T09:49:00.230Z,95285.52
2022-07-29T09:50:00.326Z,95286.68
2022-07-29T09:51:00.102Z,95286.73
2022-07-29T09:52:00.105Z,95286.92
2022-07-29T09:53:00.083Z,95285.61
2022-07-29T09:54:00.101Z,95288.26
2022-07-29T09:55:00.079Z,95279.18
2022-07-29T09:56:00.077Z,95281.92
2022-07-29T09:57:00.046Z,95279.84
2022-07-29T09:58:00.072Z,95280.78
2022-07-29T09:59:00.038Z,95278.89
2022-07-29T10:00:00.034Z,95279.39
2022-07-29T10:01:00.081Z,95278.09
2022-07-29T10:02:00.019Z,95281.38
2022-07-29T10:03:00.033Z,95278.86
2022-07-29T10:04:00.000Z,95276.44
2022-07-29T10:04:59.978Z,95275.55
2022-07-29T10:06:00.012Z,95280.78
2022-07-29T10:07:04.242Z,95280.66
2022-07-29T10:07:59.959Z,95276.59
2022-07-29T10:08:59.939Z,95280.95
2022-07-29T10:09:59.939Z,95275.78
2022-07-29T10:10:59.943Z,95278.83
2022-07-29T10:12:00.097Z,95272.67
2022-07-29T10:13:06.178Z,95283.17
2022-07-29T10:13:59.916Z,95280.17
2022-07-29T10:14:59.891Z,95277.23
2022-07-29T10:15:59.922Z,95268.72
2022-07-29T10:16:59.873Z,95270.81
2022-07-29T10:17:59.883Z,95271.64
2022-07-29T10:18:59.867Z,95274.52
2022-07-29T10:19:59.870Z,95271.84
2022-07-29T10:20:59.844Z,95269.01
2022-07-29T10:22:00.251Z,95271.89
2022-07-29T10:22:59.840Z,95263.28
2022-07-29T10:24:01.219Z,95258.10
2022-07-29T10:24:59.827Z,95274.17
2022-07-29T10:25:59.820Z,95267.25
2022-07-29T10:26:59.788Z,95267.70
2022-07-29T10:27:59.800Z,95262.11
2022-07-29T10:28:59.781Z,95272.80
2022-07-29T10:29:59.882Z,95265.39
2022-07-29T10:30:59.797Z,95261.93
2022-07-29T10:31:59.749Z,95257.55
2022-07-29T10:32:59.753Z,95255.42
2022-07-29T10:33:59.742Z,95256.04
2022-07-29T10:34:59.720Z,95255.08
2022-07-29T10:35:59.731Z,95260.36
2022-07-29T10:36:59.702Z,95258.90
2022-07-29T10:37:59.701Z,95256.23
2022-07-29T10:38:59.697Z,95255.03
2022-07-29T10:39:59.699Z,95250.27
2022-07-29T10:40:59.674Z,95258.29
2022-07-29T10:41:59.754Z,95255.83
2022-07-29T10:42:59.653Z,95251.69
2022-07-29T10:43:59.644Z,95254.78
2022-07-29T10:44:59.634Z,95250.48
2022-07-29T10:45:59.648Z,95253.77
2022-07-29T10:46:59.647Z,95249.30
2022-07-29T10:47:59.649Z,95243.25
2022-07-29T10:48:59.630Z,95244.14
2022-07-29T10:50:01.315Z,95242.87
2022-07-29T10:50:59.611Z,95246.77
2022-07-29T10:51:59.953Z,95245.16
2022-07-29T10:52:59.569Z,95245.53
2022-07-29T10:53:59.603Z,95241.99
2022-07-29T10:54:59.566Z,95244.23
2022-07-29T10:55:59.562Z,95243.11
2022-07-29T10:56:59.555Z,95241.59
2022-07-29T10:57:59.544Z,95247.92
2022-07-29T10:58:59.517Z,95240.34
2022-07-29T10:59:59.541Z,95240.48
2022-07-29T11:00:59.503Z,95246.72
2022-07-29T11:02:27.762Z,95246.81
2022-07-29T11:02:59.576Z,95246.31
2022-07-29T11:03:59.506Z,95239.48
2022-07-29T11:04:59.464Z,95235.56
2022-07-29T11:06:00.175Z,95232.23
2022-07-29T11:06:59.452Z,95236.25
2022-07-29T11:07:59.467Z,95240.90
2022-07-29T11:08:59.436Z,95246.29
2022-07-29T11:09:59.426Z,95240.91
2022-07-29T11:10:59.419Z,95243.01
2022-07-29T11:11:59.725Z,95245.17
2022-07-29T11:12:59.448Z,95246.66
2022-07-29T11:13:59.400Z,95246.52
2022-07-29T11:14:59.377Z,95242.66
2022-07-29T11:15:59.391Z,95246.64
2022-07-29T11:16:59.372Z,95243.30
2022-07-29T11:18:00.329Z,95242.98
2022-07-29T11:18:59.353Z,95238.84
2022-07-29T11:19:59.339Z,95239.03
2022-07-29T11:20:59.343Z,95240.67
2022-07-29T11:21:59.319Z,95231.59
2022-07-29T11:22:59.310Z,95237.78
2022-07-29T11:23:59.344Z,95237.78
2022-07-29T11:24:59.291Z,95239.30
2022-07-29T11:25:59.304Z,95239.72
2022-07-29T11:27:00.701Z,95244.77
2022-07-29T11:27:59.271Z,95244.95
2022-07-29T11:28:59.263Z,95241.84
2022-07-29T11:30:01.235Z,95235.45
2022-07-29T11:30:59.258Z,95240.63
2022-07-29T11:31:59.520Z,95236.92
2022-07-29T11:32:59.225Z,95239.00
2022-07-29T11:34:02.474Z,95236.48
2022-07-29T11:34:59.221Z,95235.38
2022-07-29T11:36:00.796Z,95237.11
2022-07-29T11:36:59.269Z,95237.35
2022-07-29T11:37:59.187Z,95238.83
2022-07-29T11:38:59.190Z,95244.38
2022-07-29T11:40:02.287Z,95239.73
2022-07-29T11:40:59.175Z,95245.10
2022-07-29T11:42:03.141Z,95248.92
2022-07-29T11:42:59.155Z,95246.31
2022-07-29T11:43:59.204Z,95253.97
2022-07-29T11:44:59.138Z,95250.34
2022-07-29T11:45:59.142Z,95251.16